createdAt,value
2019-05-12T00:00:55.067Z,1017.80
2019-05-12T00:01:55.024Z,1017.86
2019-05-12T00:02:55.015Z,1017.85
2019-05-12T00:03:54.962Z,1017.88
2019-05-12T00:04:54.919Z,1017.87
2019-05-12T00:05:54.888Z,1017.86
2019-05-12T00:06:54.851Z,1017.91
2019-05-12T00:07:54.819Z,1017.91
2019-05-12T00:08:54.782Z,1017.88
2019-05-12T00:09:54.743Z,1017.92
2019-05-12T00:10:54.709Z,1017.93
2019-05-12T00:11:54.670Z,1017.89
2019-05-12T00:12:54.635Z,1017.92
2019-05-12T00:13:54.603Z,1017.92
2019-05-12T00:14:54.574Z,1017.89
2019-05-12T00:15:54.526Z,1017.92
2019-05-12T00:16:54.498Z,1017.95
2019-05-12T00:17:54.456Z,1017.95
2019-05-12T00:18:54.428Z,1017.96
2019-05-12T00:19:54.385Z,1018.00
2019-05-12T00:20:54.353Z,1018.02
2019-05-12T00:21:54.315Z,1018.04
2019-05-12T00:22:54.303Z,1018.07
2019-05-12T00:23:54.236Z,1018.07
2019-05-12T00:24:54.209Z,1018.08
2019-05-12T00:25:54.168Z,1018.10
2019-05-12T00:26:54.125Z,1018.08
2019-05-12T00:27:54.101Z,1018.07
2019-05-12T00:28:54.065Z,1018.10
2019-05-12T00:29:54.027Z,1018.13
2019-05-12T00:30:53.995Z,1018.16
2019-05-12T00:31:53.957Z,1018.15
2019-05-12T00:32:53.912Z,1018.20
2019-05-12T00:33:53.884Z,1018.25
2019-05-12T00:34:53.857Z,1018.26
2019-05-12T00:35:53.813Z,1018.28
2019-05-12T00:36:53.790Z,1018.29
2019-05-12T00:37:53.740Z,1018.31
2019-05-12T00:38:53.699Z,1018.32
2019-05-12T00:39:53.666Z,1018.34
2019-05-12T00:40:53.633Z,1018.32
2019-05-12T00:41:53.594Z,1018.33
2019-05-12T00:42:53.560Z,1018.37
2019-05-12T00:43:53.517Z,1018.37
2019-05-12T00:44:53.492Z,1018.38
2019-05-12T00:45:53.446Z,1018.35
2019-05-12T00:46:53.408Z,1018.39
2019-05-12T00:47:53.373Z,1018.38
2019-05-12T00:48:53.332Z,1018.37
2019-05-12T00:49:53.302Z,1018.37
2019-05-12T00:50:53.265Z,1018.40
2019-05-12T00:51:53.235Z,1018.43
2019-05-12T00:52:53.199Z,1018.47
2019-05-12T00:53:53.162Z,1018.47
2019-05-12T00:54:53.133Z,1018.48
2019-05-12T00:55:53.080Z,1018.51
2019-05-12T00:56:53.054Z,1018.54
2019-05-12T00:57:53.040Z,1018.55
2019-05-12T00:58:52.975Z,1018.58
2019-05-12T00:59:52.953Z,1018.62
2019-05-12T01:00:52.901Z,1018.62
2019-05-12T01:01:52.873Z,1018.61
2019-05-12T01:02:52.835Z,1018.64
2019-05-12T01:03:52.803Z,1018.70
2019-05-12T01:04:52.768Z,1018.67
2019-05-12T01:05:52.731Z,1018.69
2019-05-12T01:06:52.719Z,1018.71
2019-05-12T01:07:52.661Z,1018.76
2019-05-12T01:08:52.621Z,1018.79
2019-05-12T01:09:52.572Z,1018.70
2019-05-12T01:10:52.546Z,1018.77
2019-05-12T01:11:52.510Z,1018.79
2019-05-12T01:12:52.471Z,1018.82
2019-05-12T01:13:52.447Z,1018.82
2019-05-12T01:14:52.402Z,1018.84
2019-05-12T01:15:52.365Z,1018.82
2019-05-12T01:16:52.327Z,1018.86
2019-05-12T01:17:52.291Z,1018.86
2019-05-12T01:18:52.262Z,1018.91
2019-05-12T01:19:52.226Z,1018.94
2019-05-12T01:20:52.186Z,1018.95
2019-05-12T01:21:52.149Z,1018.99
2019-05-12T01:22:52.121Z,1019.00
2019-05-12T01:23:57.131Z,1018.99
2019-05-12T01:24:52.034Z,1019.02
2019-05-12T01:25:52.007Z,1019.06
2019-05-12T01:26:51.973Z,1019.05
2019-05-12T01:27:51.929Z,1019.07
2019-05-12T01:28:51.896Z,1019.11
2019-05-12T01:29:51.853Z,1019.07
2019-05-12T01:30:51.820Z,1019.09
2019-05-12T01:31:51.799Z,1019.08
2019-05-12T01:32:51.754Z,1019.09
2019-05-12T01:33:51.714Z,1019.09
2019-05-12T01:34:51.683Z,1019.09
2019-05-12T01:35:51.634Z,1019.11
2019-05-12T01:36:51.610Z,1019.08
2019-05-12T01:37:51.569Z,1019.10
2019-05-12T01:38:51.540Z,1019.09
2019-05-12T01:39:51.515Z,1019.13
2019-05-12T01:40:51.468Z,1019.13
2019-05-12T01:41:51.424Z,1019.13
2019-05-12T01:42:51.391Z,1019.13
2019-05-12T01:43:51.359Z,1019.12
2019-05-12T01:44:51.321Z,1019.15
2019-05-12T01:45:51.277Z,1019.20
2019-05-12T01:46:51.238Z,1019.21
2019-05-12T01:47:51.204Z,1019.22
2019-05-12T01:48:51.169Z,1019.22
2019-05-12T01:49:51.138Z,1019.28
2019-05-12T01:50:51.086Z,1019.31
2019-05-12T01:51:51.061Z,1019.31
2019-05-12T01:52:51.024Z,1019.36
2019-05-12T01:53:50.984Z,1019.39
2019-05-12T01:54:50.954Z,1019.36
2019-05-12T01:55:50.909Z,1019.40
2019-05-12T01:56:50.874Z,1019.41
2019-05-12T01:57:50.840Z,1019.44
2019-05-12T01:58:50.810Z,1019.44
2019-05-12T01:59:50.771Z,1019.42
2019-05-12T02:00:50.737Z,1019.44
2019-05-12T02:01:50.696Z,1019.46
2019-05-12T02:02:50.679Z,1019.51
2019-05-12T02:03:50.624Z,1019.49
2019-05-12T02:04:50.586Z,1019.52
2019-05-12T02:05:50.545Z,1019.53
2019-05-12T02:06:50.510Z,1019.56
2019-05-12T02:07:50.470Z,1019.57
2019-05-12T02:08:50.441Z,1019.62
2019-05-12T02:09:50.411Z,1019.62
2019-05-12T02:10:50.376Z,1019.62
2019-05-12T02:11:50.321Z,1019.65
2019-05-12T02:12:50.298Z,1019.68
2019-05-12T02:13:50.268Z,1019.67
2019-05-12T02:14:50.221Z,1019.70
2019-05-12T02:15:50.185Z,1019.72
2019-05-12T02:16:50.151Z,1019.73
2019-05-12T02:17:50.111Z,1019.71
2019-05-12T02:18:50.070Z,1019.73
2019-05-12T02:19:50.037Z,1019.70
2019-05-12T02:20:50.010Z,1019.74
2019-05-12T02:21:49.970Z,1019.72
2019-05-12T02:22:49.930Z,1019.78
2019-05-12T02:23:49.903Z,1019.79
2019-05-12T02:24:49.862Z,1019.81
2019-05-12T02:25:49.821Z,1019.82
2019-05-12T02:26:49.791Z,1019.84
2019-05-12T02:27:49.752Z,1019.88
2019-05-12T02:28:49.711Z,1019.88
2019-05-12T02:29:49.675Z,1019.88
2019-05-12T02:30:50.461Z,1019.86
2019-05-12T02:31:50.256Z,1019.92
2019-05-12T02:32:57.488Z,1019.91
2019-05-12T02:33:49.532Z,1019.94
2019-05-12T02:34:49.508Z,1019.93
2019-05-12T02:35:49.467Z,1019.97
2019-05-12T02:36:49.428Z,1019.97
2019-05-12T02:37:49.394Z,1019.96
2019-05-12T02:38:49.356Z,1020.00
2019-05-12T02:39:49.311Z,1019.97
2019-05-12T02:40:49.276Z,1020.01
2019-05-12T02:41:49.242Z,1019.98
2019-05-12T02:42:49.197Z,1019.94
2019-05-12T02:43:49.169Z,1019.96
2019-05-12T02:44:49.125Z,1020.00
2019-05-12T02:45:49.104Z,1019.98
2019-05-12T02:46:49.071Z,1019.96
2019-05-12T02:47:49.024Z,1019.97
2019-05-12T02:48:48.985Z,1020.01
2019-05-12T02:49:48.979Z,1020.00
2019-05-12T02:50:48.916Z,1020.06
2019-05-12T02:51:48.873Z,1020.02
2019-05-12T02:52:48.843Z,1020.05
2019-05-12T02:53:48.797Z,1020.00
2019-05-12T02:54:55.520Z,1020.05
2019-05-12T02:55:48.734Z,1020.02
2019-05-12T02:56:48.689Z,1020.06
2019-05-12T02:57:48.659Z,1020.08
2019-05-12T02:58:48.650Z,1020.08
2019-05-12T02:59:48.585Z,1020.13
2019-05-12T03:00:48.555Z,1020.14
2019-05-12T03:01:48.511Z,1020.16
2019-05-12T03:02:48.480Z,1020.17
2019-05-12T03:03:48.432Z,1020.19
2019-05-12T03:04:48.402Z,1020.18
2019-05-12T03:05:48.369Z,1020.21
2019-05-12T03:06:48.335Z,1020.20
2019-05-12T03:07:48.291Z,1020.22
2019-05-12T03:08:48.264Z,1020.25
2019-05-12T03:09:48.220Z,1020.28
2019-05-12T03:10:48.217Z,1020.31
2019-05-12T03:11:48.141Z,1020.32
2019-05-12T03:12:48.115Z,1020.37
2019-05-12T03:13:48.078Z,1020.39
2019-05-12T03:14:48.053Z,1020.40
2019-05-12T03:15:48.019Z,1020.43
2019-05-12T03:16:48.005Z,1020.45
2019-05-12T03:17:47.932Z,1020.46
2019-05-12T03:18:47.892Z,1020.45
2019-05-12T03:19:47.862Z,1020.47
2019-05-12T03:20:47.826Z,1020.47
2019-05-12T03:21:47.797Z,1020.48
2019-05-12T03:22:47.755Z,1020.49
2019-05-12T03:23:47.733Z,1020.50
2019-05-12T03:25:06.422Z,1020.53
2019-05-12T03:25:47.646Z,1020.51
2019-05-12T03:26:47.607Z,1020.52
2019-05-12T03:27:47.576Z,1020.54
2019-05-12T03:28:47.538Z,1020.51
2019-05-12T03:29:47.501Z,1020.53
2019-05-12T03:30:49.200Z,1020.54
2019-05-12T03:31:48.981Z,1020.58
2019-05-12T03:32:48.019Z,1020.60
2019-05-12T03:33:52.902Z,1020.61
2019-05-12T03:34:57.953Z,1020.58
2019-05-12T03:36:53.822Z,1020.61
2019-05-12T03:37:54.656Z,1020.61
2019-05-12T03:38:54.952Z,1020.69
2019-05-12T03:39:54.005Z,1020.68
2019-05-12T03:40:54.915Z,1020.69
2019-05-12T03:41:54.530Z,1020.72
2019-05-12T03:42:54.774Z,1020.74
2019-05-12T03:43:54.823Z,1020.78
2019-05-12T03:44:54.387Z,1020.77
2019-05-12T03:45:51.377Z,1020.82
2019-05-12T03:46:54.199Z,1020.82
2019-05-12T03:47:51.307Z,1020.86
2019-05-12T03:48:51.262Z,1020.90
2019-05-12T03:49:54.239Z,1020.88
2019-05-12T03:50:53.999Z,1020.90
2019-05-12T03:51:54.212Z,1020.88
2019-05-12T03:52:51.124Z,1020.85
2019-05-12T03:53:51.092Z,1020.88
2019-05-12T03:54:51.048Z,1020.88
2019-05-12T03:55:51.008Z,1020.89
2019-05-12T03:56:50.979Z,1020.88
2019-05-12T03:57:50.939Z,1020.90
2019-05-12T03:58:53.927Z,1020.94
2019-05-12T03:59:53.699Z,1020.95
2019-05-12T04:00:50.843Z,1021.01
2019-05-12T04:01:50.798Z,1021.04
2019-05-12T04:02:50.758Z,1021.02
2019-05-12T04:03:50.720Z,1021.03
2019-05-12T04:04:50.684Z,1021.10
2019-05-12T04:05:50.667Z,1021.11
2019-05-12T04:06:50.618Z,1021.13
2019-05-12T04:07:50.582Z,1021.14
2019-05-12T04:08:50.546Z,1021.19
2019-05-12T04:09:50.509Z,1021.21
2019-05-12T04:10:50.467Z,1021.27
2019-05-12T04:11:50.429Z,1021.28
2019-05-12T04:12:50.416Z,1021.28
2019-05-12T04:13:50.374Z,1021.32
2019-05-12T04:14:50.329Z,1021.32
2019-05-12T04:15:50.296Z,1021.32
2019-05-12T04:16:50.257Z,1021.32
2019-05-12T04:17:50.218Z,1021.32
2019-05-12T04:18:50.188Z,1021.34
2019-05-12T04:19:50.153Z,1021.40
2019-05-12T04:20:50.107Z,1021.31
2019-05-12T04:21:50.078Z,1021.37
2019-05-12T04:22:50.050Z,1021.38
2019-05-12T04:23:50.005Z,1021.43
2019-05-12T04:24:49.969Z,1021.46
2019-05-12T04:25:54.628Z,1021.45
2019-05-12T04:26:49.894Z,1021.48
2019-05-12T04:27:49.852Z,1021.53
2019-05-12T04:28:49.815Z,1021.58
2019-05-12T04:29:49.785Z,1021.59
2019-05-12T04:30:49.749Z,1021.62
2019-05-12T04:31:49.704Z,1021.63
2019-05-12T04:32:49.676Z,1021.64
2019-05-12T04:33:49.644Z,1021.68
2019-05-12T04:34:49.593Z,1021.69
2019-05-12T04:35:49.564Z,1021.73
2019-05-12T04:36:49.536Z,1021.73
2019-05-12T04:37:49.497Z,1021.70
2019-05-12T04:38:49.457Z,1021.70
2019-05-12T04:39:49.416Z,1021.76
2019-05-12T04:40:49.383Z,1021.76
2019-05-12T04:41:49.348Z,1021.74
2019-05-12T04:42:49.325Z,1021.75
2019-05-12T04:43:49.273Z,1021.72
2019-05-12T04:44:49.243Z,1021.74
2019-05-12T04:45:49.203Z,1021.81
2019-05-12T04:46:49.174Z,1021.81
2019-05-12T04:47:49.132Z,1021.81
2019-05-12T04:48:49.085Z,1021.80
2019-05-12T04:49:49.053Z,1021.80
2019-05-12T04:50:49.020Z,1021.81
2019-05-12T04:51:48.991Z,1021.81
2019-05-12T04:52:48.956Z,1021.85
2019-05-12T04:53:48.925Z,1021.83
2019-05-12T04:54:48.875Z,1021.88
2019-05-12T04:56:05.951Z,1021.90
2019-05-12T04:56:48.802Z,1021.89
2019-05-12T04:57:48.775Z,1021.92
2019-05-12T04:58:48.740Z,1021.94
2019-05-12T04:59:48.701Z,1022.00
2019-05-12T05:00:48.661Z,1022.02
2019-05-12T05:01:48.622Z,1022.01
2019-05-12T05:02:48.593Z,1022.01
2019-05-12T05:03:48.556Z,1022.02
2019-05-12T05:04:48.528Z,1022.03
2019-05-12T05:05:48.478Z,1022.02
2019-05-12T05:06:48.445Z,1022.06
2019-05-12T05:07:48.406Z,1022.08
2019-05-12T05:08:48.379Z,1022.09
2019-05-12T05:09:48.336Z,1022.13
2019-05-12T05:10:48.303Z,1022.15
2019-05-12T05:11:48.273Z,1022.17
2019-05-12T05:12:48.227Z,1022.19
2019-05-12T05:13:48.210Z,1022.22
2019-05-12T05:14:48.173Z,1022.23
2019-05-12T05:15:48.115Z,1022.24
2019-05-12T05:16:48.096Z,1022.25
2019-05-12T05:17:48.056Z,1022.29
2019-05-12T05:18:48.010Z,1022.32
2019-05-12T05:19:47.981Z,1022.38
2019-05-12T05:20:47.941Z,1022.42
2019-05-12T05:21:47.916Z,1022.47
2019-05-12T05:22:47.871Z,1022.43
2019-05-12T05:23:47.848Z,1022.43
2019-05-12T05:24:47.796Z,1022.47
2019-05-12T05:25:47.766Z,1022.45
2019-05-12T05:26:47.737Z,1022.46
2019-05-12T05:27:47.686Z,1022.49
2019-05-12T05:28:47.656Z,1022.52
2019-05-12T05:29:47.623Z,1022.52
2019-05-12T05:30:47.581Z,1022.55
2019-05-12T05:31:47.548Z,1022.56
2019-05-12T05:32:47.516Z,1022.56
2019-05-12T05:33:47.474Z,1022.61
2019-05-12T05:34:53.717Z,1022.63
2019-05-12T05:35:47.402Z,1022.63
2019-05-12T05:36:51.103Z,1022.62
2019-05-12T05:37:47.336Z,1022.67
2019-05-12T05:38:51.063Z,1022.71
2019-05-12T05:39:49.654Z,1022.70
2019-05-12T05:40:47.227Z,1022.74
2019-05-12T05:41:50.919Z,1022.72
2019-05-12T05:42:47.158Z,1022.79
2019-05-12T05:43:48.579Z,1022.84
2019-05-12T05:44:47.100Z,1022.83
2019-05-12T05:45:47.064Z,1022.85
2019-05-12T05:46:50.059Z,1022.90
2019-05-12T05:47:48.917Z,1022.93
2019-05-12T05:48:46.946Z,1022.94
2019-05-12T05:49:46.903Z,1022.93
2019-05-12T05:50:46.873Z,1022.91
2019-05-12T05:51:54.160Z,1022.88
2019-05-12T05:52:46.803Z,1022.88
2019-05-12T05:53:49.939Z,1022.90
2019-05-12T05:54:46.727Z,1022.88
2019-05-12T05:55:50.296Z,1022.86
2019-05-12T05:56:57.403Z,1022.89
2019-05-12T05:57:46.605Z,1022.91
2019-05-12T05:58:51.657Z,1022.94
2019-05-12T05:59:46.539Z,1022.92
2019-05-12T06:00:46.515Z,1022.91
2019-05-12T06:01:51.708Z,1022.95
2019-05-12T06:02:46.440Z,1022.98
2019-05-12T06:03:46.412Z,1023.01
2019-05-12T06:04:49.839Z,1022.97
2019-05-12T06:05:46.328Z,1022.97
2019-05-12T06:06:50.775Z,1022.97
2019-05-12T06:07:46.261Z,1022.94
2019-05-12T06:08:46.226Z,1022.97
2019-05-12T06:09:46.199Z,1022.97
2019-05-12T06:10:46.166Z,1022.98
2019-05-12T06:11:46.129Z,1023.01
2019-05-12T06:12:50.664Z,1023.00
2019-05-12T06:13:46.049Z,1023.03
2019-05-12T06:14:54.149Z,1023.04
2019-05-12T06:15:45.991Z,1023.06
2019-05-12T06:16:45.951Z,1023.06
2019-05-12T06:17:45.917Z,1023.07
2019-05-12T06:18:45.871Z,1023.10
2019-05-12T06:19:45.837Z,1023.16
2019-05-12T06:20:45.805Z,1023.17
2019-05-12T06:21:45.783Z,1023.15
2019-05-12T06:22:48.546Z,1023.22
2019-05-12T06:23:45.702Z,1023.23
2019-05-12T06:24:49.091Z,1023.21
2019-05-12T06:25:51.158Z,1023.27
2019-05-12T06:26:56.708Z,1023.28
2019-05-12T06:27:45.566Z,1023.30
2019-05-12T06:28:45.531Z,1023.30
2019-05-12T06:29:45.487Z,1023.35
2019-05-12T06:30:49.467Z,1023.36
2019-05-12T06:31:45.428Z,1023.35
2019-05-12T06:32:50.128Z,1023.37
2019-05-12T06:33:45.345Z,1023.40
2019-05-12T06:34:45.308Z,1023.44
2019-05-12T06:35:45.632Z,1023.41
2019-05-12T06:36:45.235Z,1023.37
2019-05-12T06:37:57.362Z,1023.41
2019-05-12T06:38:45.167Z,1023.39
2019-05-12T06:39:45.135Z,1023.44
2019-05-12T06:40:45.604Z,1023.44
2019-05-12T06:41:45.068Z,1023.42
2019-05-12T06:42:48.482Z,1023.43
2019-05-12T06:43:45.479Z,1023.41
2019-05-12T06:44:48.926Z,1023.44
2019-05-12T06:45:45.697Z,1023.44
2019-05-12T06:46:44.892Z,1023.42
2019-05-12T06:47:49.493Z,1023.43
2019-05-12T06:48:45.596Z,1023.44
2019-05-12T06:49:48.793Z,1023.45
2019-05-12T06:50:44.755Z,1023.49
2019-05-12T06:51:44.719Z,1023.49
2019-05-12T06:52:48.978Z,1023.46
2019-05-12T06:53:44.654Z,1023.46
2019-05-12T06:54:51.297Z,1023.51
2019-05-12T06:55:44.575Z,1023.48
2019-05-12T06:56:44.541Z,1023.53
2019-05-12T06:57:48.131Z,1023.53
2019-05-12T06:58:44.476Z,1023.53
2019-05-12T06:59:50.982Z,1023.54
2019-05-12T07:00:44.403Z,1023.57
2019-05-12T07:01:45.115Z,1023.55
2019-05-12T07:02:49.973Z,1023.59
2019-05-12T07:03:44.292Z,1023.62
2019-05-12T07:04:47.473Z,1023.63
2019-05-12T07:05:45.286Z,1023.66
2019-05-12T07:06:44.363Z,1023.64
2019-05-12T07:07:46.057Z,1023.65
2019-05-12T07:08:44.123Z,1023.68
2019-05-12T07:09:51.979Z,1023.66
2019-05-12T07:10:46.910Z,1023.65
2019-05-12T07:11:52.870Z,1023.68
2019-05-12T07:12:57.590Z,1023.72
2019-05-12T07:13:43.949Z,1023.72
2019-05-12T07:14:43.915Z,1023.72
2019-05-12T07:15:44.072Z,1023.78
2019-05-12T07:16:44.200Z,1023.78
2019-05-12T07:17:49.402Z,1023.78
2019-05-12T07:18:43.836Z,1023.78
2019-05-12T07:19:44.041Z,1023.75
2019-05-12T07:20:43.723Z,1023.78
2019-05-12T07:21:44.012Z,1023.77
2019-05-12T07:22:48.091Z,1023.83
2019-05-12T07:23:44.497Z,1023.82
2019-05-12T07:24:50.142Z,1023.83
2019-05-12T07:25:44.479Z,1023.82
2019-05-12T07:26:44.245Z,1023.85
2019-05-12T07:27:45.700Z,1023.85
2019-05-12T07:28:43.444Z,1023.88
2019-05-12T07:29:43.658Z,1023.90
2019-05-12T07:30:44.148Z,1023.88
2019-05-12T07:31:44.167Z,1023.86
2019-05-12T07:32:43.425Z,1023.85
2019-05-12T07:33:45.816Z,1023.87
2019-05-12T07:34:43.728Z,1023.88
2019-05-12T07:35:44.422Z,1023.87
2019-05-12T07:36:44.305Z,1023.88
2019-05-12T07:37:43.672Z,1023.90
2019-05-12T07:38:43.455Z,1023.90
2019-05-12T07:39:47.257Z,1023.95
2019-05-12T07:40:44.392Z,1023.93
2019-05-12T07:41:50.749Z,1023.91
2019-05-12T07:42:43.871Z,1023.96
2019-05-12T07:43:44.387Z,1023.92
2019-05-12T07:44:44.089Z,1023.92
2019-05-12T07:45:44.121Z,1023.92
2019-05-12T07:46:47.764Z,1023.86
2019-05-12T07:47:44.820Z,1023.87
2019-05-12T07:48:48.991Z,1023.89
2019-05-12T07:49:44.069Z,1023.87
2019-05-12T07:50:43.342Z,1023.89
2019-05-12T07:51:44.682Z,1023.91
2019-05-12T07:52:44.204Z,1023.89
2019-05-12T07:53:46.875Z,1023.89
2019-05-12T07:54:44.449Z,1023.95
2019-05-12T07:55:47.562Z,1023.90
2019-05-12T07:56:44.178Z,1023.93
2019-05-12T07:57:52.799Z,1023.92
2019-05-12T07:58:49.075Z,1023.93
2019-05-12T07:59:43.829Z,1023.91
2019-05-12T08:00:44.219Z,1023.90
2019-05-12T08:01:48.217Z,1023.95
2019-05-12T08:02:44.406Z,1023.96
2019-05-12T08:03:43.690Z,1023.97
2019-05-12T08:04:44.017Z,1023.97
2019-05-12T08:05:43.945Z,1024.02
2019-05-12T08:06:46.057Z,1023.97
2019-05-12T08:07:43.836Z,1023.97
2019-05-12T08:08:50.359Z,1023.98
2019-05-12T08:09:43.246Z,1024.00
2019-05-12T08:10:44.164Z,1024.03
2019-05-12T08:11:43.373Z,1024.07
2019-05-12T08:12:44.297Z,1024.09
2019-05-12T08:13:43.827Z,1024.11
2019-05-12T08:14:43.981Z,1024.11
2019-05-12T08:15:45.736Z,1024.14
2019-05-12T08:16:43.730Z,1024.11
2019-05-12T08:17:43.874Z,1024.12
2019-05-12T08:18:43.803Z,1024.14
2019-05-12T08:19:44.234Z,1024.09
2019-05-12T08:20:43.564Z,1024.10
2019-05-12T08:21:43.938Z,1024.05
2019-05-12T08:22:43.620Z,1024.06
2019-05-12T08:23:44.257Z,1024.06
2019-05-12T08:24:43.596Z,1024.08
2019-05-12T08:25:43.662Z,1024.09
2019-05-12T08:26:43.550Z,1024.11
2019-05-12T08:27:45.271Z,1024.08
2019-05-12T08:28:41.406Z,1024.15
2019-05-12T08:29:43.307Z,1024.16
2019-05-12T08:30:47.544Z,1024.15
2019-05-12T08:31:41.298Z,1024.14
2019-05-12T08:32:41.266Z,1024.14
2019-05-12T08:33:43.488Z,1024.17
2019-05-12T08:34:43.611Z,1024.18
2019-05-12T08:35:43.426Z,1024.18
2019-05-12T08:36:45.058Z,1024.15
2019-05-12T08:37:41.093Z,1024.17
2019-05-12T08:38:41.064Z,1024.17
2019-05-12T08:39:41.034Z,1024.19
2019-05-12T08:40:48.857Z,1024.21
2019-05-12T08:41:40.954Z,1024.18
2019-05-12T08:42:43.407Z,1024.23
2019-05-12T08:43:48.756Z,1024.21
2019-05-12T08:44:40.947Z,1024.25
2019-05-12T08:45:40.819Z,1024.23
2019-05-12T08:46:45.665Z,1024.25
2019-05-12T08:47:40.758Z,1024.28
2019-05-12T08:48:40.724Z,1024.35
2019-05-12T08:49:50.198Z,1024.33
2019-05-12T08:50:42.823Z,1024.31
2019-05-12T08:51:40.630Z,1024.27
2019-05-12T08:52:41.987Z,1024.26
2019-05-12T08:53:40.550Z,1024.25
2019-05-12T08:54:45.429Z,1024.24
2019-05-12T08:55:40.489Z,1024.23
2019-05-12T08:56:40.479Z,1024.25
2019-05-12T08:57:41.550Z,1024.26
2019-05-12T08:58:48.208Z,1024.25
2019-05-12T08:59:40.359Z,1024.26
2019-05-12T09:00:48.193Z,1024.21
2019-05-12T09:01:40.289Z,1024.21
2019-05-12T09:02:46.094Z,1024.25
2019-05-12T09:03:40.208Z,1024.27
2019-05-12T09:04:45.310Z,1024.25
2019-05-12T09:05:40.190Z,1024.22
2019-05-12T09:06:40.124Z,1024.22
2019-05-12T09:07:40.109Z,1024.28
2019-05-12T09:08:45.143Z,1024.21
2019-05-12T09:09:40.023Z,1024.22
2019-05-12T09:10:39.985Z,1024.24
2019-05-12T09:11:39.954Z,1024.24
2019-05-12T09:12:39.914Z,1024.23
2019-05-12T09:13:39.884Z,1024.31
2019-05-12T09:14:41.376Z,1024.32
2019-05-12T09:15:39.810Z,1024.33
2019-05-12T09:16:39.784Z,1024.38
2019-05-12T09:17:49.050Z,1024.40
2019-05-12T09:18:39.715Z,1024.40
2019-05-12T09:19:39.689Z,1024.34
2019-05-12T09:20:47.891Z,1024.32
2019-05-12T09:21:39.613Z,1024.35
2019-05-12T09:22:39.576Z,1024.37
2019-05-12T09:23:41.448Z,1024.37
2019-05-12T09:24:39.515Z,1024.41
2019-05-12T09:25:44.423Z,1024.40
2019-05-12T09:26:39.448Z,1024.42
2019-05-12T09:27:44.569Z,1024.39
2019-05-12T09:28:47.423Z,1024.42
2019-05-12T09:29:39.349Z,1024.43
2019-05-12T09:30:39.989Z,1024.45
2019-05-12T09:31:39.296Z,1024.45
2019-05-12T09:32:44.433Z,1024.44
2019-05-12T09:33:39.215Z,1024.51
2019-05-12T09:34:39.191Z,1024.48
2019-05-12T09:35:39.496Z,1024.50
2019-05-12T09:36:39.115Z,1024.49
2019-05-12T09:37:40.454Z,1024.46
2019-05-12T09:38:40.976Z,1024.46
2019-05-12T09:39:42.715Z,1024.48
2019-05-12T09:40:38.992Z,1024.49
2019-05-12T09:41:42.803Z,1024.53
2019-05-12T09:42:38.924Z,1024.58
2019-05-12T09:43:40.282Z,1024.58
2019-05-12T09:44:41.305Z,1024.58
2019-05-12T09:45:40.230Z,1024.54
2019-05-12T09:46:38.782Z,1024.52
2019-05-12T09:47:38.761Z,1024.52
2019-05-12T09:48:39.134Z,1024.54
2019-05-12T09:49:39.707Z,1024.55
2019-05-12T09:50:38.657Z,1024.56
2019-05-12T09:51:45.707Z,1024.53
2019-05-12T09:52:38.589Z,1024.63
2019-05-12T09:53:42.900Z,1024.67
2019-05-12T09:54:40.777Z,1024.64
2019-05-12T09:55:38.488Z,1024.62
2019-05-12T09:56:41.113Z,1024.66
2019-05-12T09:57:40.687Z,1024.69
2019-05-12T09:58:38.395Z,1024.70
2019-05-12T09:59:38.366Z,1024.75
2019-05-12T10:00:38.336Z,1024.70
2019-05-12T10:01:39.666Z,1024.68
2019-05-12T10:02:38.277Z,1024.74
2019-05-12T10:03:40.028Z,1024.77
2019-05-12T10:04:38.193Z,1024.68
2019-05-12T10:05:41.113Z,1024.71
2019-05-12T10:06:38.139Z,1024.71
2019-05-12T10:07:38.114Z,1024.72
2019-05-12T10:08:38.069Z,1024.84
2019-05-12T10:09:38.034Z,1024.79
2019-05-12T10:10:40.268Z,1024.84
2019-05-12T10:11:37.971Z,1024.88
2019-05-12T10:12:45.156Z,1024.91
2019-05-12T10:13:37.927Z,1024.87
2019-05-12T10:14:40.754Z,1024.80
2019-05-12T10:15:37.859Z,1024.82
2019-05-12T10:16:39.486Z,1024.77
2019-05-12T10:17:37.780Z,1024.72
2019-05-12T10:18:43.138Z,1024.75
2019-05-12T10:19:37.724Z,1024.74
2019-05-12T10:20:39.853Z,1024.75
2019-05-12T10:21:37.663Z,1024.76
2019-05-12T10:22:40.094Z,1024.87
2019-05-12T10:23:37.599Z,1024.84
2019-05-12T10:24:41.590Z,1024.86
2019-05-12T10:25:37.539Z,1024.91
2019-05-12T10:26:41.089Z,1024.84
2019-05-12T10:27:37.481Z,1024.85
2019-05-12T10:28:37.445Z,1024.83
2019-05-12T10:29:37.414Z,1024.79
2019-05-12T10:30:37.392Z,1024.79
2019-05-12T10:31:39.301Z,1024.85
2019-05-12T10:32:37.322Z,1024.85
2019-05-12T10:33:37.286Z,1024.88
2019-05-12T10:34:40.270Z,1024.91
2019-05-12T10:35:37.231Z,1024.86
2019-05-12T10:36:39.168Z,1024.85
2019-05-12T10:37:37.164Z,1024.83
2019-05-12T10:38:37.132Z,1024.88
2019-05-12T10:39:37.109Z,1024.82
2019-05-12T10:40:37.075Z,1024.83
2019-05-12T10:41:37.040Z,1024.80
2019-05-12T10:42:39.729Z,1024.85
2019-05-12T10:43:37.008Z,1024.84
2019-05-12T10:44:40.718Z,1024.83
2019-05-12T10:45:36.921Z,1024.83
2019-05-12T10:46:36.890Z,1024.83
2019-05-12T10:47:36.857Z,1024.82
2019-05-12T10:48:36.821Z,1024.82
2019-05-12T10:49:36.803Z,1024.81
2019-05-12T10:50:36.789Z,1024.86
2019-05-12T10:51:36.732Z,1024.81
2019-05-12T10:52:38.927Z,1024.80
2019-05-12T10:53:36.681Z,1024.83
2019-05-12T10:54:36.656Z,1024.82
2019-05-12T10:55:36.630Z,1024.84
2019-05-12T10:56:36.602Z,1024.84
2019-05-12T10:57:36.563Z,1024.95
2019-05-12T10:58:36.522Z,1024.89
2019-05-12T10:59:38.830Z,1024.94
2019-05-12T11:00:36.473Z,1024.90
2019-05-12T11:01:38.426Z,1024.81
2019-05-12T11:02:36.414Z,1024.79
2019-05-12T11:03:36.392Z,1024.78
2019-05-12T11:04:40.947Z,1024.79
2019-05-12T11:05:36.323Z,1024.93
2019-05-12T11:06:39.689Z,1024.91
2019-05-12T11:07:36.270Z,1024.82
2019-05-12T11:08:36.262Z,1024.84
2019-05-12T11:09:36.206Z,1024.87
2019-05-12T11:10:36.172Z,1024.84
2019-05-12T11:11:42.148Z,1024.86
2019-05-12T11:12:36.124Z,1024.86
2019-05-12T11:13:40.384Z,1024.87
2019-05-12T11:14:36.057Z,1024.89
2019-05-12T11:15:39.539Z,1024.90
2019-05-12T11:16:36.021Z,1024.89
2019-05-12T11:17:40.227Z,1024.85
2019-05-12T11:18:35.937Z,1024.86
2019-05-12T11:19:40.924Z,1024.86
2019-05-12T11:20:35.884Z,1024.92
2019-05-12T11:21:35.847Z,1024.92
2019-05-12T11:22:35.823Z,1024.91
2019-05-12T11:23:35.798Z,1024.90
2019-05-12T11:24:35.768Z,1024.98
2019-05-12T11:25:35.727Z,1024.91
2019-05-12T11:26:35.693Z,1024.94
2019-05-12T11:27:35.678Z,1024.87
2019-05-12T11:28:35.644Z,1024.95
2019-05-12T11:29:45.566Z,1024.89
2019-05-12T11:30:35.605Z,1024.88
2019-05-12T11:31:35.563Z,1024.83
2019-05-12T11:32:37.928Z,1024.91
2019-05-12T11:33:35.495Z,1024.94
2019-05-12T11:34:35.459Z,1024.98
2019-05-12T11:35:35.484Z,1024.96
2019-05-12T11:36:35.467Z,1024.88
2019-05-12T11:37:35.487Z,1024.92
2019-05-12T11:38:35.592Z,1024.94
2019-05-12T11:39:36.732Z,1024.89
2019-05-12T11:40:35.289Z,1024.94
2019-05-12T11:41:35.249Z,1024.92
2019-05-12T11:42:35.415Z,1024.92
2019-05-12T11:43:35.208Z,1024.91
2019-05-12T11:44:35.195Z,1024.94
2019-05-12T11:45:35.149Z,1024.94
2019-05-12T11:46:36.408Z,1024.97
2019-05-12T11:47:37.289Z,1025.03
2019-05-12T11:48:35.061Z,1025.04
2019-05-12T11:49:35.020Z,1025.03
2019-05-12T11:50:34.992Z,1025.03
2019-05-12T11:51:34.965Z,1025.13
2019-05-12T11:52:34.931Z,1025.07
2019-05-12T11:53:35.153Z,1025.00
2019-05-12T11:54:34.884Z,1025.06
2019-05-12T11:55:35.139Z,1025.04
2019-05-12T11:56:34.824Z,1025.06
2019-05-12T11:57:34.781Z,1025.01
2019-05-12T11:58:34.749Z,1025.02
2019-05-12T11:59:34.715Z,1024.93
2019-05-12T12:00:34.699Z,1024.97
2019-05-12T12:01:34.666Z,1025.00
2019-05-12T12:02:34.651Z,1024.96
2019-05-12T12:03:34.611Z,1025.01
2019-05-12T12:04:34.576Z,1025.01
2019-05-12T12:05:34.549Z,1025.01
2019-05-12T12:06:34.525Z,1024.98